sensor_id;sensor_type;location;lat;lon;timestamp;pressure;altitude;pressure_sealevel;temperature;humidity
18500;BME280;9379;52.134;11.576;2024-02-16T00:00:59;100827.13;;;12.90;100.00
18500;BME280;9379;52.134;11.576;2024-02-16T00:03:26;100816.78;;;12.77;100.00
18500;BME280;9379;52.134;11.576;2024-02-16T00:05:54;100822.53;;;12.72;100.00
18500;BME280;9379;52.134;11.576;2024-02-16T00:08:23;100826.75;;;12.65;100.00
18500;BME280;9379;52.134;11.576;2024-02-16T00:10:50;100818.75;;;12.75;100.00
18500;BME280;9379;52.134;11.576;2024-02-16T00:13:17;100819.91;;;12.63;100.00
18500;BME280;9379;52.134;11.576;2024-02-16T00:15:44;100815.50;;;12.81;100.00
18500;BME280;9379;52.134;11.576;2024-02-16T00:18:11;100814.19;;;12.95;100.00
18500;BME280;9379;52.134;11.576;2024-02-16T00:20:38;100811.56;;;12.85;100.00
18500;BME280;9379;52.134;11.576;2024-02-16T00:23:07;100803.84;;;12.72;100.00
18500;BME280;9379;52.134;11.576;2024-02-16T00:25:34;100798.56;;;12.63;100.00
18500;BME280;9379;52.134;11.576;2024-02-16T00:28:02;100799.88;;;12.39;100.00
18500;BME280;9379;52.134;11.576;2024-02-16T00:30:29;100788.38;;;12.39;100.00
18500;BME280;9379;52.134;11.576;2024-02-16T00:32:56;100794.22;;;12.52;100.00
18500;BME280;9379;52.134;11.576;2024-02-16T00:35:22;100798.16;;;12.48;100.00
18500;BME280;9379;52.134;11.576;2024-02-16T00:37:49;100793.78;;;12.56;100.00
18500;BME280;9379;52.134;11.576;2024-02-16T00:40:18;100781.81;;;12.80;100.00
18500;BME280;9379;52.134;11.576;2024-02-16T00:42:45;100784.25;;;13.01;100.00
18500;BME280;9379;52.134;11.576;2024-02-16T00:45:12;100781.97;;;13.06;100.00
18500;BME280;9379;52.134;11.576;2024-02-16T00:47:39;100775.78;;;12.78;100.00
18500;BME280;9379;52.134;11.576;2024-02-16T00:50:07;100770.00;;;12.82;100.00
18500;BME280;9379;52.134;11.576;2024-02-16T00:52:34;100760.44;;;12.90;100.00
18500;BME280;9379;52.134;11.576;2024-02-16T00:55:02;100770.13;;;12.91;100.00
18500;BME280;9379;52.134;11.576;2024-02-16T00:57:31;100757.25;;;12.76;100.00
18500;BME280;9379;52.134;11.576;2024-02-16T00:59:59;100760.50;;;12.70;100.00
18500;BME280;9379;52.134;11.576;2024-02-16T01:02:26;100750.63;;;12.80;100.00
18500;BME280;9379;52.134;11.576;2024-02-16T01:04:53;100755.41;;;12.87;100.00
18500;BME280;9379;52.134;11.576;2024-02-16T01:07:27;100759.47;;;12.81;100.00
18500;BME280;9379;52.134;11.576;2024-02-16T01:09:54;100763.56;;;12.85;100.00
18500;BME280;9379;52.134;11.576;2024-02-16T01:12:21;100769.69;;;13.32;100.00
18500;BME280;9379;52.134;11.576;2024-02-16T01:14:50;100763.59;;;13.03;100.00
18500;BME280;9379;52.134;11.576;2024-02-16T01:17:17;100766.38;;;13.21;100.00
18500;BME280;9379;52.134;11.576;2024-02-16T01:19:44;100768.19;;;12.73;100.00
18500;BME280;9379;52.134;11.576;2024-02-16T01:22:10;100756.25;;;13.14;100.00
18500;BME280;9379;52.134;11.576;2024-02-16T01:24:37;100755.25;;;13.25;100.00
18500;BME280;9379;52.134;11.576;2024-02-16T01:27:04;100761.41;;;13.26;100.00
18500;BME280;9379;52.134;11.576;2024-02-16T01:29:31;100752.72;;;12.87;100.00
18500;BME280;9379;52.134;11.576;2024-02-16T01:31:59;100746.41;;;12.88;100.00
18500;BME280;9379;52.134;11.576;2024-02-16T01:34:27;100747.69;;;12.27;100.00
18500;BME280;9379;52.134;11.576;2024-02-16T01:36:55;100752.91;;;12.19;100.00
18500;BME280;9379;52.134;11.576;2024-02-16T01:39:22;100744.16;;;12.26;100.00
18500;BME280;9379;52.134;11.576;2024-02-16T01:41:49;100746.47;;;11.92;100.00
18500;BME280;9379;52.134;11.576;2024-02-16T01:44:16;100753.88;;;12.18;100.00
18500;BME280;9379;52.134;11.576;2024-02-16T01:46:43;100739.28;;;12.32;100.00
18500;BME280;9379;52.134;11.576;2024-02-16T01:49:12;100739.41;;;12.30;100.00
18500;BME280;9379;52.134;11.576;2024-02-16T01:51:40;100745.81;;;12.56;100.00
18500;BME280;9379;52.134;11.576;2024-02-16T01:54:10;100744.91;;;12.09;100.00
18500;BME280;9379;52.134;11.576;2024-02-16T01:56:37;100738.06;;;11.97;100.00
18500;BME280;9379;52.134;11.576;2024-02-16T01:59:04;100738.47;;;11.92;100.00
18500;BME280;9379;52.134;11.576;2024-02-16T02:01:31;100733.28;;;11.91;100.00
18500;BME280;9379;52.134;11.576;2024-02-16T02:03:58;100734.25;;;11.80;100.00
18500;BME280;9379;52.134;11.576;2024-02-16T02:06:26;100727.69;;;11.94;100.00
18500;BME280;9379;52.134;11.576;2024-02-16T02:08:53;100718.13;;;11.72;100.00
18500;BME280;9379;52.134;11.576;2024-02-16T02:11:20;100720.19;;;12.26;100.00
18500;BME280;9379;52.134;11.576;2024-02-16T02:13:47;100727.81;;;12.68;100.00
18500;BME280;9379;52.134;11.576;2024-02-16T02:16:15;100729.75;;;13.03;100.00
18500;BME280;9379;52.134;11.576;2024-02-16T02:18:43;100733.28;;;13.04;100.00
18500;BME280;9379;52.134;11.576;2024-02-16T02:21:10;100718.72;;;13.26;100.00
18500;BME280;9379;52.134;11.576;2024-02-16T02:23:40;100715.56;;;12.75;100.00
18500;BME280;9379;52.134;11.576;2024-02-16T02:26:07;100718.94;;;12.21;100.00
18500;BME280;9379;52.134;11.576;2024-02-16T02:28:34;100711.66;;;12.23;100.00
18500;BME280;9379;52.134;11.576;2024-02-16T02:31:01;100699.16;;;12.23;100.00
18500;BME280;9379;52.134;11.576;2024-02-16T02:33:28;100701.41;;;12.28;100.00
18500;BME280;9379;52.134;11.576;2024-02-16T02:35:55;100704.63;;;12.32;100.00
18500;BME280;9379;52.134;11.576;2024-02-16T02:38:22;100704.94;;;12.19;100.00
18500;BME280;9379;52.134;11.576;2024-02-16T02:40:50;100697.78;;;12.19;100.00
18500;BME280;9379;52.134;11.576;2024-02-16T02:43:17;100689.94;;;12.65;100.00
18500;BME280;9379;52.134;11.576;2024-02-16T02:45:47;100695.03;;;12.85;100.00
18500;BME280;9379;52.134;11.576;2024-02-16T02:48:14;100695.44;;;12.53;100.00
18500;BME280;9379;52.134;11.576;2024-02-16T02:50:41;100688.34;;;12.25;100.00
18500;BME280;9379;52.134;11.576;2024-02-16T02:53:08;100697.09;;;12.08;100.00
18500;BME280;9379;52.134;11.576;2024-02-16T02:55:35;100692.78;;;11.97;100.00
18500;BME280;9379;52.134;11.576;2024-02-16T02:58:04;100683.47;;;12.20;100.00
18500;BME280;9379;52.134;11.576;2024-02-16T03:00:30;100680.03;;;12.38;100.00
18500;BME280;9379;52.134;11.576;2024-02-16T03:02:57;100680.84;;;12.48;100.00
18500;BME280;9379;52.134;11.576;2024-02-16T03:05:24;100682.47;;;12.31;100.00
18500;BME280;9379;52.134;11.576;2024-02-16T03:07:51;100684.16;;;12.32;100.00
18500;BME280;9379;52.134;11.576;2024-02-16T03:10:18;100678.16;;;12.20;100.00
18500;BME280;9379;52.134;11.576;2024-02-16T03:12:47;100672.69;;;12.12;100.00
18500;BME280;9379;52.134;11.576;2024-02-16T03:15:16;100665.63;;;12.40;100.00
18500;BME280;9379;52.134;11.576;2024-02-16T03:17:43;100660.09;;;12.79;100.00
18500;BME280;9379;52.134;11.576;2024-02-16T03:20:11;100654.88;;;12.50;100.00
18500;BME280;9379;52.134;11.576;2024-02-16T03:22:37;100655.22;;;12.37;100.00
18500;BME280;9379;52.134;11.576;2024-02-16T03:25:10;100664.53;;;12.14;100.00
18500;BME280;9379;52.134;11.576;2024-02-16T03:27:37;100662.78;;;11.95;100.00
18500;BME280;9379;52.134;11.576;2024-02-16T03:30:05;100666.94;;;11.78;100.00
18500;BME280;9379;52.134;11.576;2024-02-16T03:32:33;100658.13;;;11.97;100.00
18500;BME280;9379;52.134;11.576;2024-02-16T03:35:00;100654.34;;;11.90;100.00
18500;BME280;9379;52.134;11.576;2024-02-16T03:37:27;100662.09;;;11.83;100.00
18500;BME280;9379;52.134;11.576;2024-02-16T03:39:55;100653.34;;;12.01;100.00
18500;BME280;9379;52.134;11.576;2024-02-16T03:42:22;100645.78;;;11.57;100.00
18500;BME280;9379;52.134;11.576;2024-02-16T03:44:48;100645.09;;;11.75;100.00
18500;BME280;9379;52.134;11.576;2024-02-16T03:47:15;100646.97;;;11.84;100.00
18500;BME280;9379;52.134;11.576;2024-02-16T03:49:44;100643.28;;;12.04;100.00
18500;BME280;9379;52.134;11.576;2024-02-16T03:52:10;100652.53;;;11.81;100.00
18500;BME280;9379;52.134;11.576;2024-02-16T03:54:39;100654.19;;;12.48;100.00
18500;BME280;9379;52.134;11.576;2024-02-16T03:57:07;100650.06;;;12.26;100.00
18500;BME280;9379;52.134;11.576;2024-02-16T03:59:34;100649.47;;;12.42;100.00
18500;BME280;9379;52.134;11.576;2024-02-16T04:02:01;100642.97;;;12.17;100.00
18500;BME280;9379;52.134;11.576;2024-02-16T04:04:28;100637.41;;;12.38;100.00
18500;BME280;9379;52.134;11.576;2024-02-16T04:06:56;100640.03;;;12.01;100.00
18500;BME280;9379;52.134;11.576;2024-02-16T04:09:26;100645.94;;;12.04;100.00
18500;BME280;9379;52.134;11.576;2024-02-16T04:11:54;100644.97;;;11.95;100.00
18500;BME280;9379;52.134;11.576;2024-02-16T04:14:21;100643.72;;;11.80;100.00
18500;BME280;9379;52.134;11.576;2024-02-16T04:16:48;100643.84;;;11.98;100.00
18500;BME280;9379;52.134;11.576;2024-02-16T04:19:15;100638.13;;;11.93;100.00
18500;BME280;9379;52.134;11.576;2024-02-16T04:21:41;100641.31;;;11.96;100.00
18500;BME280;9379;52.134;11.576;2024-02-16T04:24:10;100642.28;;;12.05;100.00
18500;BME280;9379;52.134;11.576;2024-02-16T04:26:37;100642.97;;;12.07;100.00
18500;BME280;9379;52.134;11.576;2024-02-16T04:29:04;100637.38;;;12.01;100.00
18500;BME280;9379;52.134;11.576;2024-02-16T04:31:31;100630.13;;;11.64;100.00
18500;BME280;9379;52.134;11.576;2024-02-16T04:33:57;100634.75;;;11.72;100.00
18500;BME280;9379;52.134;11.576;2024-02-16T04:36:24;100641.19;;;11.98;100.00
18500;BME280;9379;52.134;11.576;2024-02-16T04:38:51;100635.16;;;11.67;100.00
18500;BME280;9379;52.134;11.576;2024-02-16T04:41:21;100629.66;;;11.78;100.00
18500;BME280;9379;52.134;11.576;2024-02-16T04:43:48;100626.63;;;11.92;100.00
18500;BME280;9379;52.134;11.576;2024-02-16T04:46:15;100630.66;;;11.77;100.00
18500;BME280;9379;52.134;11.576;2024-02-16T04:48:42;100621.16;;;11.84;100.00
18500;BME280;9379;52.134;11.576;2024-02-16T04:51:09;100618.69;;;12.20;100.00
18500;BME280;9379;52.134;11.576;2024-02-16T04:53:36;100625.53;;;12.22;100.00
18500;BME280;9379;52.134;11.576;2024-02-16T04:56:04;100626.63;;;11.92;100.00
18500;BME280;9379;52.134;11.576;2024-02-16T04:58:32;100624.13;;;12.28;100.00
18500;BME280;9379;52.134;11.576;2024-02-16T05:00:59;100626.97;;;12.81;100.00
18500;BME280;9379;52.134;11.576;2024-02-16T05:03:26;100624.34;;;12.99;100.00
18500;BME280;9379;52.134;11.576;2024-02-16T05:05:53;100632.56;;;12.88;100.00
18500;BME280;9379;52.134;11.576;2024-02-16T05:08:21;100640.63;;;12.96;99.94
18500;BME280;9379;52.134;11.576;2024-02-16T05:10:48;100636.00;;;12.43;100.00
18500;BME280;9379;52.134;11.576;2024-02-16T05:13:15;100629.28;;;12.39;100.00
18500;BME280;9379;52.134;11.576;2024-02-16T05:15:44;100624.00;;;12.20;100.00
18500;BME280;9379;52.134;11.576;2024-02-16T05:18:13;100629.97;;;12.41;100.00
18500;BME280;9379;52.134;11.576;2024-02-16T05:20:40;100614.94;;;12.03;100.00
18500;BME280;9379;52.134;11.576;2024-02-16T05:23:07;100621.53;;;12.46;100.00
18500;BME280;9379;52.134;11.576;2024-02-16T05:25:34;100614.13;;;12.40;100.00
18500;BME280;9379;52.134;11.576;2024-02-16T05:28:00;100626.03;;;11.98;100.00
18500;BME280;9379;52.134;11.576;2024-02-16T05:30:28;100620.56;;;12.00;100.00
18500;BME280;9379;52.134;11.576;2024-02-16T05:32:56;100624.78;;;11.93;100.00
18500;BME280;9379;52.134;11.576;2024-02-16T05:35:24;100611.72;;;12.09;100.00
18500;BME280;9379;52.134;11.576;2024-02-16T05:37:54;100615.53;;;11.97;100.00
18500;BME280;9379;52.134;11.576;2024-02-16T05:40:21;100622.16;;;11.83;100.00
18500;BME280;9379;52.134;11.576;2024-02-16T05:42:50;100621.53;;;11.99;100.00
18500;BME280;9379;52.134;11.576;2024-02-16T05:45:18;100625.38;;;12.34;100.00
18500;BME280;9379;52.134;11.576;2024-02-16T05:47:47;100612.75;;;11.79;100.00
18500;BME280;9379;52.134;11.576;2024-02-16T05:50:15;100626.63;;;11.73;100.00
18500;BME280;9379;52.134;11.576;2024-02-16T05:52:43;100623.81;;;11.65;100.00
18500;BME280;9379;52.134;11.576;2024-02-16T05:55:11;100610.78;;;11.33;100.00
18500;BME280;9379;52.134;11.576;2024-02-16T05:57:38;100606.31;;;11.62;100.00
18500;BME280;9379;52.134;11.576;2024-02-16T06:00:07;100609.94;;;11.81;100.00
18500;BME280;9379;52.134;11.576;2024-02-16T06:02:35;100601.56;;;11.37;100.00
18500;BME280;9379;52.134;11.576;2024-02-16T06:05:02;100600.00;;;11.54;100.00
18500;BME280;9379;52.134;11.576;2024-02-16T06:07:31;100604.34;;;11.55;100.00
18500;BME280;9379;52.134;11.576;2024-02-16T06:09:58;100597.06;;;11.57;100.00
18500;BME280;9379;52.134;11.576;2024-02-16T06:12:25;100599.00;;;11.55;100.00
18500;BME280;9379;52.134;11.576;2024-02-16T06:14:52;100604.56;;;12.10;100.00
18500;BME280;9379;52.134;11.576;2024-02-16T06:17:20;100615.03;;;12.21;100.00
18500;BME280;9379;52.134;11.576;2024-02-16T06:19:46;100613.16;;;12.41;100.00
18500;BME280;9379;52.134;11.576;2024-02-16T06:22:13;100612.34;;;12.31;100.00
18500;BME280;9379;52.134;11.576;2024-02-16T06:24:42;100611.59;;;11.91;100.00
18500;BME280;9379;52.134;11.576;2024-02-16T06:27:09;100621.28;;;11.63;100.00
18500;BME280;9379;52.134;11.576;2024-02-16T06:29:36;100611.78;;;11.51;100.00
18500;BME280;9379;52.134;11.576;2024-02-16T06:32:04;100616.34;;;11.78;100.00
18500;BME280;9379;52.134;11.576;2024-02-16T06:34:31;100616.34;;;12.44;100.00
18500;BME280;9379;52.134;11.576;2024-02-16T06:36:58;100621.00;;;12.70;100.00
18500;BME280;9379;52.134;11.576;2024-02-16T06:39:25;100615.84;;;12.59;100.00
18500;BME280;9379;52.134;11.576;2024-02-16T06:41:53;100621.63;;;12.81;100.00
18500;BME280;9379;52.134;11.576;2024-02-16T06:44:20;100632.66;;;13.14;99.15
18500;BME280;9379;52.134;11.576;2024-02-16T06:46:48;100628.44;;;13.39;97.24
18500;BME280;9379;52.134;11.576;2024-02-16T06:49:14;100630.56;;;13.35;96.85
18500;BME280;9379;52.134;11.576;2024-02-16T06:51:41;100627.53;;;13.03;98.25
18500;BME280;9379;52.134;11.576;2024-02-16T06:54:10;100623.56;;;12.89;99.70
18500;BME280;9379;52.134;11.576;2024-02-16T06:56:38;100622.34;;;13.01;99.44
18500;BME280;9379;52.134;11.576;2024-02-16T06:59:06;100605.94;;;12.78;100.00
18500;BME280;9379;52.134;11.576;2024-02-16T07:01:34;100612.63;;;12.82;100.00
18500;BME280;9379;52.134;11.576;2024-02-16T07:04:00;100616.94;;;12.93;99.73
18500;BME280;9379;52.134;11.576;2024-02-16T07:06:28;100611.13;;;12.80;99.67
18500;BME280;9379;52.134;11.576;2024-02-16T07:08:54;100619.94;;;12.80;100.00
18500;BME280;9379;52.134;11.576;2024-02-16T07:11:21;100619.50;;;12.57;100.00
18500;BME280;9379;52.134;11.576;2024-02-16T07:13:47;100615.69;;;12.33;100.00
18500;BME280;9379;52.134;11.576;2024-02-16T07:16:16;100619.19;;;12.33;100.00
18500;BME280;9379;52.134;11.576;2024-02-16T07:18:43;100622.34;;;12.19;100.00
18500;BME280;9379;52.134;11.576;2024-02-16T07:21:10;100626.91;;;12.26;100.00
18500;BME280;9379;52.134;11.576;2024-02-16T07:23:37;100622.59;;;12.25;100.00
18500;BME280;9379;52.134;11.576;2024-02-16T07:26:04;100633.31;;;12.43;100.00
18500;BME280;9379;52.134;11.576;2024-02-16T07:28:33;100629.16;;;12.31;100.00
18500;BME280;9379;52.134;11.576;2024-02-16T07:31:00;100619.84;;;12.45;100.00
18500;BME280;9379;52.134;11.576;2024-02-16T07:33:29;100621.41;;;12.75;100.00
18500;BME280;9379;52.134;11.576;2024-02-16T07:35:56;100620.69;;;13.18;99.73
18500;BME280;9379;52.134;11.576;2024-02-16T07:38:23;100618.88;;;13.19;99.91
18500;BME280;9379;52.134;11.576;2024-02-16T07:40:50;100617.06;;;13.19;99.64
18500;BME280;9379;52.134;11.576;2024-02-16T07:43:17;100615.44;;;13.08;99.51
18500;BME280;9379;52.134;11.576;2024-02-16T07:45:44;100619.84;;;13.18;98.82
18500;BME280;9379;52.134;11.576;2024-02-16T07:48:11;100614.63;;;12.80;100.00
18500;BME280;9379;52.134;11.576;2024-02-16T07:50:39;100610.38;;;13.33;99.58
18500;BME280;9379;52.134;11.576;2024-02-16T07:53:06;100616.63;;;12.96;99.74
18500;BME280;9379;52.134;11.576;2024-02-16T07:55:35;100614.03;;;12.87;100.00
18500;BME280;9379;52.134;11.576;2024-02-16T07:58:02;100614.25;;;13.21;100.00
18500;BME280;9379;52.134;11.576;2024-02-16T08:00:29;100615.25;;;12.92;100.00
18500;BME280;9379;52.134;11.576;2024-02-16T08:02:56;100616.28;;;13.09;100.00
18500;BME280;9379;52.134;11.576;2024-02-16T08:05:23;100626.84;;;13.46;99.16
18500;BME280;9379;52.134;11.576;2024-02-16T08:07:52;100632.16;;;13.64;97.95
18500;BME280;9379;52.134;11.576;2024-02-16T08:10:22;100621.78;;;13.79;97.18
18500;BME280;9379;52.134;11.576;2024-02-16T08:12:50;100623.53;;;13.70;97.05
18500;BME280;9379;52.134;11.576;2024-02-16T08:15:18;100630.22;;;13.74;97.38
18500;BME280;9379;52.134;11.576;2024-02-16T08:17:48;100631.53;;;13.70;97.33
18500;BME280;9379;52.134;11.576;2024-02-16T08:20:16;100624.28;;;13.62;97.96
18500;BME280;9379;52.134;11.576;2024-02-16T08:22:43;100635.81;;;13.81;97.05
18500;BME280;9379;52.134;11.576;2024-02-16T08:25:11;100635.13;;;14.05;96.41
18500;BME280;9379;52.134;11.576;2024-02-16T08:27:38;100637.50;;;13.64;98.16
18500;BME280;9379;52.134;11.576;2024-02-16T08:30:06;100629.91;;;13.77;97.83
18500;BME280;9379;52.134;11.576;2024-02-16T08:32:34;100625.13;;;13.63;99.52
18500;BME280;9379;52.134;11.576;2024-02-16T08:35:01;100623.53;;;13.70;99.51
18500;BME280;9379;52.134;11.576;2024-02-16T08:37:28;100607.63;;;13.86;98.42
18500;BME280;9379;52.134;11.576;2024-02-16T08:39:55;100613.31;;;13.48;100.00
18500;BME280;9379;52.134;11.576;2024-02-16T08:42:23;100612.84;;;13.70;99.56
18500;BME280;9379;52.134;11.576;2024-02-16T08:44:51;100613.84;;;13.69;99.21
18500;BME280;9379;52.134;11.576;2024-02-16T08:47:18;100603.34;;;13.76;98.28
18500;BME280;9379;52.134;11.576;2024-02-16T08:49:46;100606.63;;;13.87;97.14
18500;BME280;9379;52.134;11.576;2024-02-16T08:52:13;100598.66;;;13.95;97.63
18500;BME280;9379;52.134;11.576;2024-02-16T08:54:39;100610.94;;;13.80;98.19
18500;BME280;9379;52.134;11.576;2024-02-16T08:57:06;100609.78;;;13.83;97.83
18500;BME280;9379;52.134;11.576;2024-02-16T08:59:36;100597.50;;;13.98;97.18
18500;BME280;9379;52.134;11.576;2024-02-16T09:02:03;100593.91;;;13.63;98.16
18500;BME280;9379;52.134;11.576;2024-02-16T09:04:31;100595.97;;;13.69;97.95
18500;BME280;9379;52.134;11.576;2024-02-16T09:06:58;100589.81;;;13.95;96.81
18500;BME280;9379;52.134;11.576;2024-02-16T09:09:25;100598.34;;;13.98;97.22
18500;BME280;9379;52.134;11.576;2024-02-16T09:11:53;100604.50;;;13.91;97.00
18500;BME280;9379;52.134;11.576;2024-02-16T09:14:20;100603.16;;;13.69;98.68
18500;BME280;9379;52.134;11.576;2024-02-16T09:16:50;100596.91;;;13.78;98.59
18500;BME280;9379;52.134;11.576;2024-02-16T09:19:18;100594.16;;;13.96;98.54
18500;BME280;9379;52.134;11.576;2024-02-16T09:21:45;100604.00;;;13.95;99.44
18500;BME280;9379;52.134;11.576;2024-02-16T09:24:12;100608.28;;;13.88;99.41
18500;BME280;9379;52.134;11.576;2024-02-16T09:26:43;100612.59;;;14.07;98.34
18500;BME280;9379;52.134;11.576;2024-02-16T09:29:11;100605.88;;;14.29;97.68
18500;BME280;9379;52.134;11.576;2024-02-16T09:31:38;100596.56;;;14.07;98.13
18500;BME280;9379;52.134;11.576;2024-02-16T09:34:07;100608.44;;;14.73;95.98
18500;BME280;9379;52.134;11.576;2024-02-16T09:36:34;100601.50;;;14.54;96.97
18500;BME280;9379;52.134;11.576;2024-02-16T09:39:04;100608.19;;;14.50;97.67
18500;BME280;9379;52.134;11.576;2024-02-16T09:41:34;100603.28;;;14.79;96.84
18500;BME280;9379;52.134;11.576;2024-02-16T09:44:02;100604.00;;;14.98;95.45
18500;BME280;9379;52.134;11.576;2024-02-16T09:46:29;100600.31;;;14.99;95.87
18500;BME280;9379;52.134;11.576;2024-02-16T09:48:59;100605.41;;;15.34;94.15
18500;BME280;9379;52.134;11.576;2024-02-16T09:51:30;100610.06;;;15.24;94.06
18500;BME280;9379;52.134;11.576;2024-02-16T09:53:57;100610.91;;;15.25;94.18
18500;BME280;9379;52.134;11.576;2024-02-16T09:56:25;100617.78;;;15.35;93.93
18500;BME280;9379;52.134;11.576;2024-02-16T09:58:53;100619.13;;;15.47;93.53
18500;BME280;9379;52.134;11.576;2024-02-16T10:01:21;100610.25;;;15.39;93.59
18500;BME280;9379;52.134;11.576;2024-02-16T10:03:48;100615.59;;;15.23;94.23
18500;BME280;9379;52.134;11.576;2024-02-16T10:06:16;100620.66;;;15.42;94.29
18500;BME280;9379;52.134;11.576;2024-02-16T10:08:54;100624.63;;;15.22;94.04
18500;BME280;9379;52.134;11.576;2024-02-16T10:11:24;100628.16;;;15.30;94.71
18500;BME280;9379;52.134;11.576;2024-02-16T10:13:57;100636.31;;;15.12;95.67
18500;BME280;9379;52.134;11.576;2024-02-16T10:16:23;100628.16;;;15.30;94.50
18500;BME280;9379;52.134;11.576;2024-02-16T10:18:50;100628.22;;;15.79;92.95
18500;BME280;9379;52.134;11.576;2024-02-16T10:21:27;100632.03;;;15.85;92.63
18500;BME280;9379;52.134;11.576;2024-02-16T10:24:00;100629.84;;;16.04;92.07
18500;BME280;9379;52.134;11.576;2024-02-16T10:26:28;100638.75;;;15.81;92.00
18500;BME280;9379;52.134;11.576;2024-02-16T10:28:56;100625.19;;;15.82;92.17
18500;BME280;9379;52.134;11.576;2024-02-16T10:31:24;100613.94;;;15.95;91.39
18500;BME280;9379;52.134;11.576;2024-02-16T10:33:57;100612.44;;;15.84;91.70
18500;BME280;9379;52.134;11.576;2024-02-16T10:36:25;100617.81;;;15.84;91.59
18500;BME280;9379;52.134;11.576;2024-02-16T10:38:54;100619.13;;;16.13;90.14
18500;BME280;9379;52.134;11.576;2024-02-16T10:41:26;100623.25;;;16.31;89.46
18500;BME280;9379;52.134;11.576;2024-02-16T10:43:54;100627.94;;;16.38;89.56
18500;BME280;9379;52.134;11.576;2024-02-16T10:46:22;100621.16;;;16.58;88.69
18500;BME280;9379;52.134;11.576;2024-02-16T10:48:49;100615.19;;;16.40;88.85
18500;BME280;9379;52.134;11.576;2024-02-16T10:51:19;100621.53;;;16.94;86.98
18500;BME280;9379;52.134;11.576;2024-02-16T10:53:47;100612.53;;;17.10;86.86
18500;BME280;9379;52.134;11.576;2024-02-16T10:56:15;100611.94;;;16.69;88.44
18500;BME280;9379;52.134;11.576;2024-02-16T10:58:47;100605.75;;;17.22;87.09
18500;BME280;9379;52.134;11.576;2024-02-16T11:01:15;100602.59;;;17.18;87.31
18500;BME280;9379;52.134;11.576;2024-02-16T11:03:42;100610.84;;;17.40;85.70
18500;BME280;9379;52.134;11.576;2024-02-16T11:06:14;100598.50;;;17.45;86.03
18500;BME280;9379;52.134;11.576;2024-02-16T11:08:42;100600.31;;;17.53;83.96
18500;BME280;9379;52.134;11.576;2024-02-16T11:11:09;100599.34;;;17.46;86.32
18500;BME280;9379;52.134;11.576;2024-02-16T11:13:37;100601.19;;;17.45;86.10
18500;BME280;9379;52.134;11.576;2024-02-16T11:16:10;100606.06;;;17.50;86.03
18500;BME280;9379;52.134;11.576;2024-02-16T11:18:42;100609.44;;;17.67;85.39
18500;BME280;9379;52.134;11.576;2024-02-16T11:21:12;100611.47;;;17.42;86.90
18500;BME280;9379;52.134;11.576;2024-02-16T11:23:40;100597.16;;;17.27;87.41
18500;BME280;9379;52.134;11.576;2024-02-16T11:26:09;100602.81;;;17.09;88.42
18500;BME280;9379;52.134;11.576;2024-02-16T11:28:38;100597.88;;;17.20;88.99
18500;BME280;9379;52.134;11.576;2024-02-16T11:31:08;100600.56;;;17.20;88.68
18500;BME280;9379;52.134;11.576;2024-02-16T11:33:35;100603.97;;;17.37;88.64
18500;BME280;9379;52.134;11.576;2024-02-16T11:36:04;100605.81;;;17.14;87.83
18500;BME280;9379;52.134;11.576;2024-02-16T11:38:34;100610.25;;;16.99;89.11
18500;BME280;9379;52.134;11.576;2024-02-16T11:41:02;100606.16;;;17.11;89.58
18500;BME280;9379;52.134;11.576;2024-02-16T11:43:30;100606.28;;;17.17;89.41
18500;BME280;9379;52.134;11.576;2024-02-16T11:45:58;100605.28;;;17.41;89.14
18500;BME280;9379;52.134;11.576;2024-02-16T11:48:26;100607.16;;;17.10;91.94
18500;BME280;9379;52.134;11.576;2024-02-16T11:50:59;100612.19;;;17.36;94.71
18500;BME280;9379;52.134;11.576;2024-02-16T11:53:27;100603.41;;;16.96;94.45
18500;BME280;9379;52.134;11.576;2024-02-16T11:55:54;100605.13;;;17.12;95.01
18500;BME280;9379;52.134;11.576;2024-02-16T11:58:22;100610.50;;;17.12;94.05
18500;BME280;9379;52.134;11.576;2024-02-16T12:00:50;100616.19;;;17.17;95.29
18500;BME280;9379;52.134;11.576;2024-02-16T12:03:18;100600.28;;;17.38;92.81
18500;BME280;9379;52.134;11.576;2024-02-16T12:05:52;100604.91;;;17.21;92.44
18500;BME280;9379;52.134;11.576;2024-02-16T12:08:19;100606.09;;;17.19;92.42
18500;BME280;9379;52.134;11.576;2024-02-16T12:10:51;100596.84;;;17.21;92.39
18500;BME280;9379;52.134;11.576;2024-02-16T12:13:19;100607.06;;;17.49;92.07
18500;BME280;9379;52.134;11.576;2024-02-16T12:15:46;100591.84;;;17.41;93.13
18500;BME280;9379;52.134;11.576;2024-02-16T12:18:20;100591.94;;;17.48;90.72
18500;BME280;9379;52.134;11.576;2024-02-16T12:20:59;100604.03;;;17.52;91.46
18500;BME280;9379;52.134;11.576;2024-02-16T12:23:27;100588.22;;;17.95;88.92
18500;BME280;9379;52.134;11.576;2024-02-16T12:25:54;100599.69;;;18.03;87.96
18500;BME280;9379;52.134;11.576;2024-02-16T12:28:26;100600.34;;;18.05;86.27
18500;BME280;9379;52.134;11.576;2024-02-16T12:30:54;100601.47;;;18.11;86.54
18500;BME280;9379;52.134;11.576;2024-02-16T12:33:22;100597.94;;;17.96;85.53
18500;BME280;9379;52.134;11.576;2024-02-16T12:35:49;100593.28;;;17.90;86.53
18500;BME280;9379;52.134;11.576;2024-02-16T12:38:18;100600.06;;;17.86;85.68
18500;BME280;9379;52.134;11.576;2024-02-16T12:40:45;100602.34;;;17.74;87.53
18500;BME280;9379;52.134;11.576;2024-02-16T12:43:12;100597.38;;;17.63;85.68
18500;BME280;9379;52.134;11.576;2024-02-16T12:45:39;100597.00;;;17.66;86.44
18500;BME280;9379;52.134;11.576;2024-02-16T12:48:06;100593.03;;;17.62;84.98